createdAt,value
2022-09-04T00:01:24.815Z,100940.81
2022-09-04T00:03:40.482Z,100947.84
2022-09-04T00:05:52.011Z,100951.38
2022-09-04T00:08:06.025Z,100945.25
2022-09-04T00:10:16.141Z,100954.94
2022-09-04T00:12:27.005Z,100958.47
2022-09-04T00:14:38.146Z,100960.28
2022-09-04T00:16:47.671Z,100954.97
2022-09-04T00:18:59.751Z,100947.94
2022-09-04T00:21:11.062Z,100929.47
2022-09-04T00:23:21.231Z,100962.91
2022-09-04T00:25:29.465Z,100957.63
2022-09-04T00:27:44.211Z,100965.53
2022-09-04T00:29:55.602Z,100964.69
2022-09-04T00:32:06.742Z,100905.75
2022-09-04T00:34:22.877Z,100966.47
2022-09-04T00:36:29.156Z,100966.47
2022-09-04T00:38:43.105Z,100971.75
2022-09-04T00:40:52.310Z,100963.81
2022-09-04T00:43:37.413Z,100972.59
2022-09-04T00:45:59.232Z,100975.28
2022-09-04T00:48:39.160Z,100970.91
2022-09-04T00:51:03.750Z,100967.41
2022-09-04T00:53:32.064Z,100970.06
2022-09-04T00:55:50.688Z,100966.59
2022-09-04T00:58:12.170Z,100972.78
2022-09-04T01:00:16.990Z,100960.44
2022-09-04T01:02:31.609Z,100969.25
2022-09-04T01:04:44.024Z,100980.72
2022-09-04T01:07:01.921Z,100985.13
2022-09-04T01:09:42.401Z,100984.22
2022-09-04T01:12:02.584Z,100982.47
2022-09-04T01:14:15.499Z,100969.28
2022-09-04T01:16:26.178Z,100980.72
2022-09-04T01:18:38.571Z,100965.78
2022-09-04T01:20:57.430Z,100988.66
2022-09-04T01:23:15.335Z,100984.25
2022-09-04T01:25:33.945Z,100994.84
2022-09-04T01:27:47.145Z,100993.09
2022-09-04T01:30:00.234Z,100993.97
2022-09-04T01:32:14.415Z,101002.78
2022-09-04T01:34:39.261Z,101001.94
2022-09-04T01:36:49.907Z,100998.44
2022-09-04T01:38:57.101Z,101004.59
2022-09-04T01:41:08.663Z,101004.59
2022-09-04T01:43:17.608Z,101008.13
2022-09-04T01:45:30.288Z,100994.88
2022-09-04T01:47:44.383Z,101003.69
2022-09-04T01:49:52.243Z,101004.56
2022-09-04T01:52:04.747Z,101003.66
2022-09-04T01:54:32.347Z,101010.72
2022-09-04T01:56:45.219Z,101012.50
2022-09-04T01:58:57.113Z,101015.13
2022-09-04T02:01:08.766Z,101010.75
2022-09-04T02:03:22.414Z,101013.41
2022-09-04T02:05:32.852Z,101027.50
2022-09-04T02:07:44.308Z,101023.06
2022-09-04T02:09:59.620Z,101022.19
2022-09-04T02:12:12.305Z,101023.94
2022-09-04T02:14:34.128Z,101032.78
2022-09-04T02:16:47.131Z,101037.19
2022-09-04T02:19:00.290Z,101035.41
2022-09-04T02:21:08.859Z,101016.03
2022-09-04T02:23:19.472Z,101044.19
2022-09-04T02:25:30.675Z,101044.22
2022-09-04T02:27:46.841Z,101034.53
2022-09-04T02:30:00.699Z,101045.97
2022-09-04T02:32:12.875Z,101043.31
2022-09-04T02:34:27.223Z,101029.25
2022-09-04T02:36:37.806Z,101040.69
2022-09-04T02:38:52.510Z,101038.91
2022-09-04T02:41:04.140Z,101048.63
2022-09-04T02:43:24.736Z,101044.19
2022-09-04T02:45:37.833Z,101044.19
2022-09-04T02:47:48.778Z,101036.28
2022-09-04T02:50:00.809Z,101048.63
2022-09-04T02:52:33.615Z,101041.56
2022-09-04T02:54:49.708Z,101055.69
2022-09-04T02:57:02.563Z,101048.63
2022-09-04T02:59:21.584Z,101057.44
2022-09-04T03:01:33.611Z,101057.41
2022-09-04T03:03:44.460Z,101060.06
2022-09-04T03:05:57.587Z,101050.38
2022-09-04T03:08:07.988Z,101058.31
2022-09-04T03:10:16.372Z,101052.16
2022-09-04T03:12:38.466Z,101056.53
2022-09-04T03:14:49.896Z,101058.31
2022-09-04T03:16:59.871Z,101056.53
2022-09-04T03:19:10.031Z,101055.66
2022-09-04T03:21:22.079Z,101055.66
2022-09-04T03:23:37.786Z,101055.66
2022-09-04T03:26:17.588Z,101057.44
2022-09-04T03:28:33.080Z,101055.66
2022-09-04T03:30:38.362Z,101057.44
2022-09-04T03:32:52.955Z,101057.41
2022-09-04T03:35:03.956Z,101057.44
2022-09-04T03:37:29.213Z,101061.84
2022-09-04T03:39:41.826Z,101064.47
2022-09-04T03:41:55.750Z,101069.75
2022-09-04T03:44:13.562Z,101072.38
2022-09-04T03:46:32.534Z,101069.75
2022-09-04T03:48:49.952Z,101071.50
2022-09-04T03:50:59.118Z,101075.91
2022-09-04T03:53:13.003Z,101080.31
2022-09-04T03:55:42.129Z,101075.03
2022-09-04T03:58:03.307Z,101069.69
2022-09-04T04:00:10.586Z,101073.25
2022-09-04T04:02:26.853Z,101078.53
2022-09-04T04:05:21.809Z,101085.59
2022-09-04T04:07:35.507Z,101084.66
2022-09-04T04:09:54.740Z,101088.16
2022-09-04T04:12:16.532Z,101086.41
2022-09-04T04:14:46.454Z,101089.06
2022-09-04T04:17:00.145Z,101099.59
2022-09-04T04:19:22.832Z,101092.53
2022-09-04T04:21:40.579Z,101096.06
2022-09-04T04:23:59.609Z,101089.91
2022-09-04T04:26:11.209Z,101087.25
2022-09-04T04:28:25.901Z,101088.16
2022-09-04T04:30:38.164Z,101094.31
2022-09-04T04:33:10.873Z,101100.47
2022-09-04T04:35:26.788Z,101078.44
2022-09-04T04:37:44.467Z,101115.47
2022-09-04T04:39:53.849Z,101117.22
2022-09-04T04:42:22.352Z,101114.53
2022-09-04T04:44:53.400Z,101118.03
2022-09-04T04:47:09.343Z,101116.25
2022-09-04T04:49:39.113Z,101116.22
2022-09-04T04:51:59.939Z,101114.44
2022-09-04T04:54:20.495Z,101112.66
2022-09-04T04:56:30.715Z,101125.81
2022-09-04T04:58:47.485Z,101124.06
2022-09-04T05:01:01.847Z,101115.22
2022-09-04T05:03:15.423Z,101136.38
2022-09-04T05:05:26.537Z,101139.91
2022-09-04T05:07:37.213Z,101144.31
2022-09-04T05:09:49.701Z,101153.88
2022-09-04T05:12:00.600Z,101151.22
2022-09-04T05:14:15.067Z,101156.50
2022-09-04T05:16:23.906Z,101160.84
2022-09-04T05:18:34.722Z,101155.47
2022-09-04T05:20:45.600Z,101163.34
2022-09-04T05:22:57.497Z,101166.09
2022-09-04T05:25:11.450Z,101172.25
2022-09-04T05:27:39.541Z,101177.50
2022-09-04T05:29:51.528Z,101186.19
2022-09-04T05:32:00.267Z,101153.63
2022-09-04T05:34:10.639Z,101162.50
2022-09-04T05:36:25.970Z,101193.31
2022-09-04T05:38:35.567Z,101190.63
2022-09-04T05:40:57.214Z,101191.53
2022-09-04T05:43:20.645Z,101193.25
2022-09-04T05:45:30.521Z,101192.28
2022-09-04T05:47:47.094Z,101192.38
2022-09-04T05:50:14.057Z,101198.63
2022-09-04T05:52:42.202Z,101199.63
2022-09-04T05:55:15.743Z,101213.63
2022-09-04T05:57:42.311Z,101210.13
2022-09-04T06:00:07.714Z,101201.31
2022-09-04T06:02:44.118Z,101220.66
2022-09-04T06:05:19.158Z,101227.66
2022-09-04T06:07:28.454Z,101231.13
2022-09-04T06:09:59.620Z,101231.09
2022-09-04T06:12:19.601Z,101216.22
2022-09-04T06:14:58.759Z,101230.38
2022-09-04T06:17:17.370Z,101236.50
2022-09-04T06:19:45.338Z,101232.13
2022-09-04T06:22:23.993Z,101236.59
2022-09-04T06:24:43.117Z,101246.28
2022-09-04T06:26:58.743Z,101242.84
2022-09-04T06:29:33.948Z,101241.16
2022-09-04T06:31:56.186Z,101238.56
2022-09-04T06:34:06.962Z,101242.97
2022-09-04T06:36:25.767Z,101247.34
2022-09-04T06:38:43.497Z,101243.81
2022-09-04T06:40:59.606Z,101250.88
2022-09-04T06:43:17.119Z,101224.38
2022-09-04T06:45:31.115Z,101250.00
2022-09-04T06:47:52.835Z,101251.81
2022-09-04T06:50:11.561Z,101256.25
2022-09-04T06:52:26.036Z,101255.41
2022-09-04T06:54:47.212Z,101258.91
2022-09-04T06:57:05.779Z,101273.09
2022-09-04T06:59:43.136Z,101265.97
2022-09-04T07:02:00.546Z,101266.00
2022-09-04T07:04:16.749Z,101251.88
2022-09-04T07:06:26.504Z,101261.59
2022-09-04T07:08:44.023Z,101259.88
2022-09-04T07:11:00.051Z,101262.56
2022-09-04T07:13:29.743Z,101263.50
2022-09-04T07:16:10.624Z,101262.63
2022-09-04T07:18:29.879Z,101272.38
2022-09-04T07:20:42.855Z,101279.41
2022-09-04T07:23:02.644Z,101254.72
2022-09-04T07:25:13.852Z,101269.72
2022-09-04T07:27:35.979Z,101269.75
2022-09-04T07:29:48.632Z,101269.75
2022-09-04T07:32:02.435Z,101268.03
2022-09-04T07:34:12.839Z,101273.34
2022-09-04T07:36:29.555Z,101279.53
2022-09-04T07:38:41.709Z,101282.19
2022-09-04T07:40:50.585Z,101275.19
2022-09-04T07:43:00.863Z,101280.47
2022-09-04T07:45:09.887Z,101284.88
2022-09-04T07:47:19.537Z,101295.44
2022-09-04T07:49:33.119Z,101291.06
2022-09-04T07:51:44.422Z,101295.50
2022-09-04T07:54:13.350Z,101295.47
2022-09-04T07:56:36.198Z,101302.53
2022-09-04T07:58:58.515Z,101297.22
2022-09-04T08:01:19.663Z,101303.44
2022-09-04T08:03:36.931Z,101306.97
2022-09-04T08:06:00.962Z,101209.00
2022-09-04T08:08:46.077Z,101302.53
2022-09-04T08:11:05.333Z,101301.66
2022-09-04T08:13:24.774Z,101295.47
2022-09-04T08:15:43.252Z,101299.84
2022-09-04T08:18:22.519Z,101311.34
2022-09-04T08:20:44.066Z,101306.00
2022-09-04T08:22:56.386Z,101310.41
2022-09-04T08:25:26.985Z,101313.06
2022-09-04T08:27:51.958Z,101314.84
2022-09-04T08:30:05.003Z,101317.47
2022-09-04T08:32:25.711Z,101320.13
2022-09-04T08:35:04.066Z,101323.63
2022-09-04T08:37:20.891Z,101313.81
2022-09-04T08:39:34.186Z,101322.63
2022-09-04T08:42:25.085Z,101323.53
2022-09-04T08:45:05.849Z,101332.38
2022-09-04T08:47:44.813Z,101329.59
2022-09-04T08:50:25.685Z,101335.88
2022-09-04T08:53:18.698Z,101341.16
2022-09-04T08:55:46.022Z,101345.53
2022-09-04T08:58:18.032Z,101341.16
2022-09-04T09:00:22.447Z,101342.03
2022-09-04T09:03:02.844Z,101335.75
2022-09-04T09:05:44.408Z,101347.09
2022-09-04T09:10:36.375Z,101347.16
2022-09-04T09:13:08.713Z,101338.16
2022-09-04T09:15:43.815Z,101338.16
2022-09-04T09:18:02.251Z,101347.78
2022-09-04T09:20:27.058Z,101345.16
2022-09-04T09:22:51.168Z,101289.56
2022-09-04T09:25:20.560Z,101342.41
2022-09-04T09:27:53.342Z,101333.50
2022-09-04T09:30:07.903Z,101338.63
2022-09-04T09:32:50.318Z,101332.31
2022-09-04T09:35:30.794Z,101342.91
2022-09-04T09:38:07.593Z,101339.22
2022-09-04T09:40:32.726Z,101336.56
2022-09-04T09:43:12.883Z,101338.22
2022-09-04T09:45:44.581Z,101325.63
2022-09-04T09:48:36.675Z,101328.19
2022-09-04T09:51:23.385Z,101336.00
2022-09-04T09:54:15.221Z,101325.16
2022-09-04T09:56:53.754Z,101322.41
2022-09-04T09:59:36.108Z,101322.09
2022-09-04T10:02:01.584Z,101325.47
2022-09-04T10:04:40.207Z,101325.41
2022-09-04T10:07:27.106Z,101330.44
2022-09-04T10:10:04.001Z,101321.34
2022-09-04T10:12:39.087Z,101280.72
2022-09-04T10:15:23.713Z,101320.81
2022-09-04T10:18:03.706Z,101324.38
2022-09-04T10:20:43.065Z,101324.06
2022-09-04T10:23:09.564Z,101308.97
2022-09-04T10:26:01.019Z,101325.09
2022-09-04T10:28:29.184Z,101320.38
2022-09-04T10:30:48.548Z,101318.31
2022-09-04T10:33:26.437Z,101318.91
2022-09-04T10:35:39.274Z,101321.88
2022-09-04T10:38:01.277Z,101328.22
2022-09-04T10:40:33.737Z,101307.59
2022-09-04T10:42:50.301Z,101320.66
2022-09-04T10:45:17.041Z,101329.97
2022-09-04T10:47:35.011Z,101328.28
2022-09-04T10:50:13.877Z,101324.63
2022-09-04T10:52:54.898Z,101327.06
2022-09-04T10:55:36.366Z,101332.59
2022-09-04T10:57:55.414Z,101325.38
2022-09-04T11:00:08.509Z,101321.88
2022-09-04T11:02:34.927Z,101328.31
2022-09-04T11:05:07.558Z,101329.25
2022-09-04T11:07:46.203Z,101328.31
2022-09-04T11:10:18.259Z,101329.56
2022-09-04T11:12:40.038Z,101282.44
2022-09-04T11:15:03.520Z,101319.88
2022-09-04T11:17:36.990Z,101320.50
2022-09-04T11:20:18.558Z,101320.03
2022-09-04T11:23:07.107Z,101318.72
2022-09-04T11:25:44.381Z,101312.19
2022-09-04T11:28:47.306Z,101317.16
2022-09-04T11:31:05.008Z,101315.19
2022-09-04T11:33:54.455Z,101316.00
2022-09-04T11:36:52.650Z,101317.13
2022-09-04T11:39:38.743Z,101306.31
2022-09-04T11:42:20.387Z,101310.44
2022-09-04T11:44:46.422Z,101309.53
2022-09-04T11:47:15.040Z,101305.81
2022-09-04T11:50:08.886Z,101293.56
2022-09-04T11:52:28.489Z,101295.34
2022-09-04T11:55:02.020Z,101305.13
2022-09-04T11:57:22.544Z,101301.75
2022-09-04T11:59:51.686Z,101302.84
2022-09-04T12:02:16.120Z,101309.84
2022-09-04T12:05:01.122Z,101311.06
2022-09-04T12:07:38.987Z,101304.72
2022-09-04T12:10:02.196Z,101303.88
2022-09-04T12:12:25.002Z,101316.38
2022-09-04T12:14:57.082Z,101313.19
2022-09-04T12:17:28.047Z,101322.03
2022-09-04T12:19:57.076Z,101322.31
2022-09-04T12:22:18.109Z,101316.25
2022-09-04T12:24:59.078Z,101262.94
2022-09-04T12:27:33.465Z,101317.78
2022-09-04T12:29:59.272Z,101319.91
2022-09-04T12:32:44.250Z,101312.97
2022-09-04T12:35:09.779Z,101312.16
2022-09-04T12:37:34.398Z,101312.81
2022-09-04T12:40:30.466Z,101320.75
2022-09-04T12:42:42.383Z,101315.41
2022-09-04T12:45:01.943Z,101315.31
2022-09-04T12:47:18.179Z,101316.09
2022-09-04T12:49:44.272Z,101322.66
2022-09-04T12:51:56.891Z,101319.75
2022-09-04T12:54:14.337Z,101315.94
2022-09-04T12:56:28.736Z,101309.72
2022-09-04T12:58:47.899Z,101306.72
2022-09-04T13:01:01.877Z,101312.00
2022-09-04T13:03:17.296Z,101317.97
2022-09-04T13:05:36.193Z,101312.97
2022-09-04T13:07:56.838Z,101313.38
2022-09-04T13:10:14.509Z,101317.16
2022-09-04T13:12:26.259Z,101321.13
2022-09-04T13:14:57.469Z,101313.88
2022-09-04T13:17:09.423Z,101313.72
2022-09-04T13:19:22.745Z,101325.81
2022-09-04T13:21:40.792Z,101312.19
2022-09-04T13:24:00.596Z,101323.03
2022-09-04T13:26:24.372Z,101323.81
2022-09-04T13:28:40.026Z,101321.13
2022-09-04T13:30:57.188Z,101322.44
2022-09-04T13:33:21.173Z,101320.41
2022-09-04T13:35:42.541Z,101320.97
2022-09-04T13:38:03.581Z,101281.38
2022-09-04T13:40:33.044Z,101321.91
2022-09-04T13:43:24.210Z,101319.66
2022-09-04T13:45:29.247Z,101323.06
2022-09-04T13:47:44.123Z,101315.47
2022-09-04T13:49:56.639Z,101327.19
2022-09-04T13:52:07.375Z,101324.25
2022-09-04T13:54:15.161Z,101324.13
2022-09-04T13:56:26.287Z,101327.09
2022-09-04T13:58:33.692Z,101330.19
2022-09-04T14:00:45.719Z,101333.22
2022-09-04T14:02:57.216Z,101326.16
2022-09-04T14:05:07.101Z,101325.09
2022-09-04T14:07:17.242Z,101331.81
2022-09-04T14:09:21.379Z,101333.75
2022-09-04T14:11:45.891Z,101333.94
2022-09-04T14:14:21.078Z,101332.75
2022-09-04T14:16:25.214Z,101316.88
2022-09-04T14:18:46.471Z,101329.00
2022-09-04T14:20:57.911Z,101329.22
2022-09-04T14:23:12.981Z,101324.69
2022-09-04T14:25:22.247Z,101325.78
2022-09-04T14:27:31.725Z,101326.50
2022-09-04T14:29:46.294Z,101325.28
2022-09-04T14:31:58.815Z,101315.13
2022-09-04T14:34:13.870Z,101314.44
2022-09-04T14:36:35.547Z,101327.06
2022-09-04T14:38:54.039Z,101318.19
2022-09-04T14:41:05.619Z,101322.69
2022-09-04T14:43:22.289Z,101318.97
2022-09-04T14:45:35.316Z,101324.16
2022-09-04T14:47:45.341Z,101323.31
2022-09-04T14:49:55.669Z,101324.44
2022-09-04T14:52:11.727Z,101325.22
2022-09-04T14:54:19.031Z,101325.47
2022-09-04T14:56:29.300Z,101318.31
2022-09-04T14:58:38.205Z,101321.97
2022-09-04T15:00:58.909Z,101299.22
2022-09-04T15:03:10.240Z,101318.75
2022-09-04T15:05:23.334Z,101320.78
2022-09-04T15:07:49.204Z,101313.72
2022-09-04T15:09:54.646Z,101289.41
2022-09-04T15:12:25.746Z,101310.97
2022-09-04T15:14:34.398Z,101304.03
2022-09-04T15:16:49.600Z,101308.56
2022-09-04T15:18:58.994Z,101315.72
2022-09-04T15:21:10.592Z,101318.16
2022-09-04T15:23:20.815Z,101303.38
2022-09-04T15:25:58.833Z,101307.00
2022-09-04T15:28:07.031Z,101299.06
2022-09-04T15:30:20.348Z,101295.19
2022-09-04T15:32:26.073Z,101303.00
2022-09-04T15:34:32.204Z,101305.72
2022-09-04T15:36:39.222Z,101298.41
2022-09-04T15:38:50.604Z,101303.28
2022-09-04T15:41:16.787Z,101296.88
2022-09-04T15:43:27.343Z,101296.75
2022-09-04T15:45:40.880Z,101303.94
2022-09-04T15:47:58.607Z,101301.41
2022-09-04T15:50:06.982Z,101304.34
2022-09-04T15:52:26.965Z,101303.47
2022-09-04T15:54:53.234Z,101299.97
2022-09-04T15:57:02.701Z,101305.88
2022-09-04T15:59:15.124Z,101309.53
2022-09-04T16:01:23.729Z,101306.19
2022-09-04T16:03:36.600Z,101312.69
2022-09-04T16:05:45.490Z,101314.81
2022-09-04T16:08:03.859Z,101308.25
2022-09-04T16:10:15.964Z,101313.75
2022-09-04T16:12:22.555Z,101299.69
2022-09-04T16:14:31.852Z,101295.53
2022-09-04T16:16:42.562Z,101298.69
2022-09-04T16:18:53.253Z,101305.75
2022-09-04T16:21:00.101Z,101292.44
2022-09-04T16:23:08.633Z,101300.63
2022-09-04T16:25:27.223Z,101310.56
2022-09-04T16:27:31.842Z,101302.16
2022-09-04T16:29:37.813Z,101305.66
2022-09-04T16:31:41.327Z,101308.53
2022-09-04T16:33:52.870Z,101302.41
2022-09-04T16:36:02.654Z,101292.03
2022-09-04T16:38:14.827Z,101295.72
2022-09-04T16:40:28.424Z,101299.34
2022-09-04T16:42:40.229Z,101299.69
2022-09-04T16:44:47.666Z,101308.81
2022-09-04T16:47:02.779Z,101301.97
2022-09-04T16:49:13.438Z,101306.19
2022-09-04T16:51:39.977Z,101302.25
2022-09-04T16:53:51.851Z,101302.31
2022-09-04T16:55:59.963Z,101304.41
2022-09-04T16:58:21.743Z,101298.28
2022-09-04T17:00:56.205Z,101296.19
2022-09-04T17:03:10.554Z,101301.16
2022-09-04T17:05:28.395Z,101268.94
2022-09-04T17:07:39.288Z,101293.38
2022-09-04T17:09:55.723Z,101293.28
2022-09-04T17:12:07.315Z,101298.56
2022-09-04T17:14:20.433Z,101296.22
2022-09-04T17:16:26.777Z,101289.09
2022-09-04T17:18:32.212Z,101292.84
2022-09-04T17:24:03.143Z,101295.66
2022-09-04T17:29:04.806Z,101300.53
2022-09-04T17:29:17.347Z,101290.47
2022-09-04T17:29:22.314Z,101292.56
2022-09-04T17:31:07.324Z,101292.31
2022-09-04T17:39:23.127Z,101293.19
2022-09-04T17:40:33.131Z,101295.06
2022-09-04T17:40:52.074Z,101288.00
2022-09-04T17:41:40.151Z,101296.88
2022-09-04T17:43:37.453Z,101297.09
2022-09-04T17:45:52.358Z,101287.59
2022-09-04T17:48:02.373Z,101289.22
2022-09-04T17:50:12.469Z,101291.44
2022-09-04T17:52:24.658Z,101300.44
2022-09-04T17:54:31.620Z,101289.72
2022-09-04T17:56:41.210Z,101295.91
2022-09-04T17:58:53.270Z,101294.09
2022-09-04T18:01:14.563Z,101291.44
2022-09-04T18:03:29.177Z,101293.69
2022-09-04T18:05:48.649Z,101293.09
2022-09-04T18:08:07.979Z,101304.19
2022-09-04T18:10:23.298Z,101303.41
2022-09-04T18:12:34.810Z,101298.97
2022-09-04T18:14:44.250Z,101308.97
2022-09-04T18:17:12.774Z,101310.91
2022-09-04T18:19:22.869Z,101307.47
2022-09-04T18:21:32.323Z,101311.94
2022-09-04T18:23:51.960Z,101311.16
2022-09-04T18:26:00.537Z,101314.00
2022-09-04T18:28:12.108Z,101328.25
2022-09-04T18:36:17.367Z,101334.63
2022-09-04T18:37:10.424Z,101332.97
2022-09-04T18:37:21.162Z,101320.13
2022-09-04T18:37:47.638Z,101337.84
2022-09-04T18:40:03.799Z,101345.97
2022-09-04T18:49:08.518Z,101354.09
2022-09-04T18:50:29.879Z,101357.34
2022-09-04T18:50:32.157Z,101339.34
2022-09-04T18:50:34.630Z,101355.34
2022-09-04T18:52:10.003Z,101359.25
2022-09-04T18:54:21.463Z,101341.72
2022-09-04T18:56:29.716Z,101350.78
2022-09-04T18:58:45.979Z,101362.22
2022-09-04T19:00:56.858Z,101368.63
2022-09-04T19:03:13.062Z,101367.81
2022-09-04T19:05:19.038Z,101350.53
2022-09-04T19:07:31.877Z,101355.56
2022-09-04T19:09:56.201Z,101369.91
2022-09-04T19:12:07.800Z,101366.47
2022-09-04T19:14:17.473Z,101370.03
2022-09-04T19:16:30.406Z,101373.59
2022-09-04T19:18:46.080Z,101357.84
2022-09-04T19:20:53.634Z,101368.44
2022-09-04T19:23:01.572Z,101367.63
2022-09-04T19:25:14.484Z,101367.72
2022-09-04T19:27:28.423Z,101371.34
2022-09-04T19:29:37.842Z,101361.88
2022-09-04T19:31:51.279Z,101368.13
2022-09-04T19:33:59.293Z,101375.50
2022-09-04T19:36:08.589Z,101374.94
2022-09-04T19:43:05.478Z,101370.53
2022-09-04T19:46:04.738Z,101380.34
2022-09-04T19:46:07.453Z,101374.97
2022-09-04T19:46:19.142Z,101373.16
2022-09-04T19:48:28.522Z,101355.59
2022-09-04T19:53:17.662Z,101374.06
2022-09-04T19:53:32.365Z,101367.84
2022-09-04T19:55:42.556Z,101375.91
2022-09-04T19:57:47.549Z,101381.31
2022-09-04T19:59:57.956Z,101366.59
2022-09-04T20:02:24.638Z,101379.84
2022-09-04T20:04:35.078Z,101383.44
2022-09-04T20:06:48.824Z,101388.78
2022-09-04T20:08:57.596Z,101390.50
2022-09-04T20:11:05.730Z,101393.19
2022-09-04T20:13:21.417Z,101391.44
2022-09-04T20:15:31.865Z,101394.25
2022-09-04T20:17:54.170Z,101392.47
2022-09-04T20:20:03.175Z,101382.03
2022-09-04T20:22:17.328Z,101389.91
2022-09-04T20:24:26.169Z,101397.13
2022-09-04T20:26:32.956Z,101394.53
2022-09-04T20:28:48.705Z,101391.00
2022-09-04T20:31:35.245Z,101399.91
2022-09-04T20:33:34.995Z,101346.16
2022-09-04T20:35:45.638Z,101400.84
2022-09-04T20:37:53.565Z,101399.97
2022-09-04T20:40:08.496Z,101401.72
2022-09-04T20:42:21.011Z,101396.13
2022-09-04T20:44:32.163Z,101398.63
2022-09-04T20:48:59.535Z,101396.78
2022-09-04T20:52:52.615Z,101391.53
2022-09-04T20:52:53.857Z,101394.91
2022-09-04T20:54:38.767Z,101409.19
2022-09-04T21:00:59.523Z,101372.28
2022-09-04T21:03:06.344Z,101406.66
2022-09-04T21:03:19.259Z,101391.84
2022-09-04T21:04:37.657Z,101407.84
2022-09-04T21:06:53.642Z,101404.28
2022-09-04T21:09:13.968Z,101410.56
2022-09-04T21:11:41.169Z,101410.56
2022-09-04T21:13:48.855Z,101414.22
2022-09-04T21:16:05.742Z,101414.22
2022-09-04T21:18:31.294Z,101408.91
2022-09-04T21:21:02.179Z,101422.13
2022-09-04T21:23:31.848Z,101425.31
2022-09-04T21:25:45.333Z,101420.97
2022-09-04T21:28:28.919Z,101412.81
2022-09-04T21:30:50.289Z,101411.94
2022-09-04T21:33:26.645Z,101414.59
2022-09-04T21:35:35.974Z,101411.09
2022-09-04T21:37:47.914Z,101412.88
2022-09-04T21:40:19.615Z,101413.81
2022-09-04T21:42:54.616Z,101413.88
2022-09-04T21:45:17.654Z,101414.75
2022-09-04T21:47:44.745Z,101418.22
2022-09-04T21:50:23.103Z,101418.25
2022-09-04T21:52:56.060Z,101417.41
2022-09-04T21:56:00.745Z,101412.19
2022-09-04T22:02:36.342Z,101416.56
2022-09-04T22:02:40.141Z,101420.13
2022-09-04T22:03:09.532Z,101416.53
2022-09-04T22:05:20.146Z,101423.78
2022-09-04T22:12:27.984Z,101363.91
2022-09-04T22:13:35.063Z,101421.34
2022-09-04T22:13:43.094Z,101417.13
2022-09-04T22:15:15.536Z,101419.88
2022-09-04T22:17:41.796Z,101424.31
2022-09-04T22:20:16.034Z,101419.09
2022-09-04T22:22:49.299Z,101418.38
2022-09-04T22:25:18.409Z,101422.09
2022-09-04T22:28:09.782Z,101412.31
2022-09-04T22:30:16.266Z,101401.00
2022-09-04T22:32:40.344Z,101426.66
2022-09-04T22:35:17.256Z,101430.22
2022-09-04T22:38:01.689Z,101426.66
2022-09-04T22:40:21.977Z,101437.38
2022-09-04T22:42:45.711Z,101434.81
2022-09-04T22:45:09.772Z,101438.34
2022-09-04T22:47:29.916Z,101436.66
2022-09-04T22:49:47.437Z,101432.16
2022-09-04T22:52:19.374Z,101442.75
2022-09-04T22:54:39.603Z,101434.78
2022-09-04T22:56:54.182Z,101425.97
2022-09-04T22:59:27.430Z,101427.75
2022-09-04T23:02:07.418Z,101433.16
2022-09-04T23:04:36.617Z,101441.22
2022-09-04T23:11:18.550Z,101441.19
2022-09-04T23:13:52.625Z,101438.44
2022-09-04T23:13:59.988Z,101441.97
2022-09-04T23:15:43.987Z,101445.50
2022-09-04T23:20:46.863Z,101441.06
2022-09-04T23:26:32.799Z,101434.94
2022-09-04T23:26:53.433Z,101442.03
2022-09-04T23:26:58.282Z,101442.06
2022-09-04T23:29:45.275Z,101449.22
2022-09-04T23:32:07.335Z,101444.00
2022-09-04T23:34:54.733Z,101437.84
2022-09-04T23:37:41.343Z,101441.41
2022-09-04T23:40:11.366Z,101442.25
2022-09-04T23:42:43.631Z,101433.44
2022-09-04T23:45:11.780Z,101431.72
2022-09-04T23:47:49.646Z,101435.28
2022-09-04T23:50:01.950Z,101438.88
2022-09-04T23:52:14.843Z,101436.22
2022-09-04T23:54:41.920Z,101438.06
2022-09-04T23:56:47.403Z,101441.59
2022-09-04T23:59:35.905Z,101437.22
